Weather History for Columbia Airport, CA

Change the Weather History Date:

Monday, April 7, 2014

  Actual Average (KMOD) Record (KMOD)
Temperature  
Mean Temperature 58 °F -  
Max Temperature 75 °F 72 °F 94 °F (1989)
Min Temperature 41 °F 48 °F 36 °F (1975)
Degree Days  
Heating Degree Days 7 6  
Month to date heating degree days 42  
Since 1 July heating degree days 2047  
Cooling Degree Days 0 1  
Month to date cooling degree days 3  
Year to date cooling degree days 8  
Growing Degree Days 8 (Base 50)    
Moisture  
Dew Point 47 °F    
Average Humidity 70    
Maximum Humidity 100    
Minimum Humidity 37    
Precipitation  
Precipitation 0.00 in 0.04 in 0.56 in (1952)
Month to date precipitation 0.28  
Year to date precipitation 7.31  
Since 1 July precipitation 11.67  
Snow  
Snow 0.00 in - - ()
Month to date snowfall  
Since 1 July snowfall  
Snow Depth -    
Sea Level Pressure  
Sea Level Pressure 30.16 in    
Wind  
Wind Speed 1 mph (SSW)    
Max Wind Speed 9 mph    
Max Gust Speed -    
Visibility 10 miles    
Events      
T = Trace of Precipitation, MM = Missing Value Source: NWS Daily Summary

Daily Weather History Graph

Daily Weather History Graph

Search for Another Location

Airport:

Trip Planner

Search our weather history database for the weather conditions in past years. The results will help you decide how hot, cold, wet, or windy it might be!

Date:

Astronomy

Apr. 07, 2014 Rise Set
Actual Time 6:37 AM PDT 7:30 PM PDT
Civil Twilight 6:10 AM PDT 7:57 PM PDT
Nautical Twilight 5:39 AM PDT 8:29 PM PDT
Astronomical Twilight 5:06 AM PDT 9:01 PM PDT
Moon 12:40 PM PDT (4/7) 2:08 AM PDT (4/7)
Length of Visible Light 13h 46m
Length of Day
12h 52m
First Quarter, 54% of the Moon is Illuminated
Apr 7
First Quarter
Apr 15
Full
Apr 22
Last Quarter
Apr 28
New
May 6
First Quarter

Hourly Weather History & Observations

Time (PDT) Temp. Windchill Dew Point Humidity Pressure Visibility Wind Dir Wind Speed Gust Speed Precip Events Conditions
12:15 AM 46.4 °F - 44.6 °F 93% 30.15 in 10.0 mi Calm Calm - N/A   Clear
12:35 AM 46.4 °F - 44.6 °F 93% 30.15 in 10.0 mi Calm Calm - N/A   Clear
12:55 AM 44.6 °F 43.1 °F 44.6 °F 100% 30.15 in 10.0 mi ENE 3.5 mph - N/A   Clear
1:15 AM 44.6 °F - 44.6 °F 100% 30.15 in 10.0 mi Calm Calm - N/A   Clear
1:35 AM 44.6 °F - 44.6 °F 100% 30.15 in 10.0 mi Calm Calm - N/A   Clear
1:55 AM 44.6 °F - 44.6 °F 100% 30.15 in 10.0 mi Calm Calm - N/A   Clear
2:15 AM 44.6 °F - 44.6 °F 100% 30.15 in 10.0 mi Calm Calm - N/A   Clear
2:35 AM 44.6 °F - 44.6 °F 100% 30.16 in 10.0 mi Calm Calm - N/A   Clear
2:55 AM 42.8 °F - 42.8 °F 100% 30.16 in 10.0 mi Calm Calm - N/A   Clear
3:15 AM 42.8 °F - 42.8 °F 100% 30.16 in 10.0 mi Calm Calm - N/A   Clear
3:55 AM 42.8 °F - 42.8 °F 100% 30.15 in 10.0 mi Calm Calm - N/A   Clear
4:15 AM 42.8 °F - 42.8 °F 100% 30.15 in 10.0 mi Calm Calm - N/A   Clear
4:35 AM 42.8 °F - 42.8 °F 100% 30.15 in 10.0 mi Calm Calm - N/A   Clear
4:55 AM 42.8 °F - 42.8 °F 100% 30.15 in 9.0 mi Calm Calm - N/A   Clear
5:15 AM 41.0 °F - 41.0 °F 100% 30.16 in 9.0 mi Calm Calm - N/A   Clear
5:35 AM 42.8 °F - 42.8 °F 100% 30.16 in 8.0 mi Calm Calm - N/A   Clear
5:55 AM 42.8 °F - 42.8 °F 100% 30.16 in 8.0 mi Calm Calm - N/A   Clear
6:15 AM 41.0 °F - 41.0 °F 100% 30.17 in 8.0 mi Calm Calm - N/A   Clear
6:35 AM 41.0 °F - 41.0 °F 100% 30.17 in 9.0 mi Calm Calm - N/A   Clear
6:55 AM 42.8 °F - 42.8 °F 100% 30.18 in 8.0 mi Calm Calm - N/A   Clear
7:15 AM 44.6 °F - 44.6 °F 100% 30.18 in 10.0 mi Calm Calm - N/A   Clear
7:35 AM 46.4 °F - 46.4 °F 100% 30.18 in 10.0 mi Calm Calm - N/A   Clear
7:55 AM 50.0 °F - 50.0 °F 100% 30.18 in 10.0 mi NNE 3.5 mph - N/A   Clear
8:15 AM 55.4 °F - 50.0 °F 82% 30.18 in 10.0 mi Calm Calm - N/A   Clear
8:35 AM 59.0 °F - 50.0 °F 72% 30.18 in 10.0 mi Calm Calm - N/A   Clear
8:55 AM 62.6 °F - 44.6 °F 52% 30.18 in 10.0 mi Calm Calm - N/A   Clear
9:15 AM 64.4 °F - 42.8 °F 45% 30.19 in 10.0 mi Calm Calm - N/A   Clear
9:35 AM 66.2 °F - 42.8 °F 43% 30.19 in 10.0 mi Calm Calm - N/A   Clear
9:55 AM 66.2 °F - 42.8 °F 43% 30.19 in 10.0 mi Calm Calm - N/A   Clear
10:15 AM 68.0 °F - 41.0 °F 37% 30.19 in 10.0 mi Calm Calm - N/A   Clear
10:35 AM 68.0 °F - 46.4 °F 46% 30.20 in 10.0 mi SSW 3.5 mph - N/A   Clear
10:55 AM 68.0 °F - 48.2 °F 49% 30.20 in 10.0 mi SW 3.5 mph - N/A   Clear
11:15 AM 71.6 °F - 48.2 °F 43% 30.20 in 10.0 mi South 4.6 mph - N/A   Clear
11:35 AM 71.6 °F - 51.8 °F 50% 30.20 in 10.0 mi SSW 5.8 mph - N/A   Clear
11:55 AM 71.6 °F - 50.0 °F 46% 30.20 in 10.0 mi SSW 4.6 mph - N/A   Clear
12:15 PM 71.6 °F - 50.0 °F 46% 30.19 in 10.0 mi SSW 4.6 mph - N/A   Clear
12:35 PM 73.4 °F - 50.0 °F 44% 30.19 in 10.0 mi SSW 4.6 mph - N/A   Clear
12:55 PM 73.4 °F - 53.6 °F 50% 30.19 in 10.0 mi WSW 5.8 mph - N/A   Clear
1:15 PM 73.4 °F - 53.6 °F 50% 30.19 in 10.0 mi WSW 5.8 mph - N/A   Clear
1:55 PM 73.4 °F - 53.6 °F 50% 30.18 in 10.0 mi SW 8.1 mph - N/A   Clear
2:15 PM 75.2 °F - 55.4 °F 50% 30.18 in 10.0 mi WSW 4.6 mph - N/A   Clear
2:35 PM 75.2 °F - 55.4 °F 50% 30.17 in 10.0 mi West 8.1 mph - N/A   Clear
2:55 PM 75.2 °F - 55.4 °F 50% 30.17 in 10.0 mi WSW 6.9 mph - N/A   Clear
3:15 PM 75.2 °F - 53.6 °F 47% 30.16 in 10.0 mi SW 5.8 mph - N/A   Clear
3:35 PM 75.2 °F - 53.6 °F 47% 30.16 in 10.0 mi WSW 9.2 mph - N/A   Clear
3:55 PM 75.2 °F - 53.6 °F 47% 30.16 in 10.0 mi WSW 6.9 mph - N/A   Clear
4:15 PM 75.2 °F - 53.6 °F 47% 30.15 in 10.0 mi SW 4.6 mph - N/A   Clear
4:35 PM 75.2 °F - 53.6 °F 47% 30.15 in 10.0 mi South 5.8 mph - N/A   Clear
4:55 PM 75.2 °F - 51.8 °F 44% 30.15 in 10.0 mi SE 4.6 mph - N/A   Clear
5:15 PM 75.2 °F - 51.8 °F 44% 30.15 in 10.0 mi SE 4.6 mph - N/A   Clear
5:35 PM 75.2 °F - 51.8 °F 44% 30.15 in 10.0 mi SE 3.5 mph - N/A   Clear
5:55 PM 75.2 °F - 48.2 °F 38% 30.15 in 10.0 mi East 3.5 mph - N/A   Clear
6:15 PM 73.4 °F - 50.0 °F 44% 30.14 in 10.0 mi Calm Calm - N/A   Clear
6:35 PM 73.4 °F - 50.0 °F 44% 30.14 in 10.0 mi Calm Calm - N/A   Clear
6:55 PM 69.8 °F - 53.6 °F 56% 30.13 in 10.0 mi Calm Calm - N/A   Clear
7:15 PM 64.4 °F - 51.8 °F 64% 30.13 in 10.0 mi NE 3.5 mph - N/A   Clear
7:35 PM 60.8 °F - 50.0 °F 68% 30.13 in 10.0 mi Calm Calm - N/A   Clear
7:55 PM 59.0 °F - 50.0 °F 72% 30.14 in 10.0 mi Calm Calm - N/A   Clear
8:15 PM 57.2 °F - 48.2 °F 72% 30.14 in 10.0 mi Calm Calm - N/A   Clear
8:35 PM 55.4 °F - 46.4 °F 72% 30.14 in 10.0 mi Calm Calm - N/A   Clear
8:55 PM 55.4 °F - 44.6 °F 67% 30.14 in 10.0 mi Calm Calm - N/A   Clear
9:15 PM 53.6 °F - 44.6 °F 72% 30.15 in 10.0 mi Calm Calm - N/A   Clear
9:35 PM 53.6 °F - 41.0 °F 62% 30.14 in 10.0 mi Calm Calm - N/A   Clear
9:55 PM 50.0 °F - 41.0 °F 71% 30.15 in 10.0 mi Calm Calm - N/A   Clear
10:15 PM 51.8 °F - 39.2 °F 62% 30.14 in 10.0 mi Calm Calm - N/A   Clear
10:35 PM 50.0 °F - 39.2 °F 66% 30.14 in 10.0 mi Calm Calm - N/A   Clear
10:55 PM 50.0 °F - 39.2 °F 66% 30.15 in 10.0 mi Calm Calm - N/A   Clear
11:15 PM 50.0 °F - 41.0 °F 71% 30.15 in 10.0 mi Calm Calm - N/A   Clear
11:35 PM 48.2 °F - 41.0 °F 76% 30.15 in 10.0 mi Calm Calm - N/A   Clear
11:55 PM 48.2 °F - 41.0 °F 76% 30.15 in 10.0 mi Calm Calm - N/A   Clear